Time;durP1;ratioP1;P1;durP2;ratioP2;P2;SDS_P1;SDS_P2;PMS_P1;PMS_P2;Temp;Humidity;BMP_temperature;BMP_pressure;BME280_temperature;BME280_humidity;BME280_pressure;Samples;Min_cycle;Max_cycle;Signal;HPM_P1;HPM_P2
2022/06/03 00:01:05;;;;;;;13.95;12.55;;;;;;;25.08;65.26;101155.31;4888965;28;20103;-77
2022/06/03 00:03:51;;;;;;;12.13;10.82;;;;;;;25.09;65.25;101148.06;4896885;28;20053;-77
2022/06/03 00:06:37;;;;;;;12.70;11.40;;;;;;;25.08;65.24;101144.47;4895686;29;20416;-78
2022/06/03 00:09:12;;;;;;;12.80;11.50;;;;;;;25.08;65.10;101139.06;4880938;28;20056;-78
2022/06/03 00:12:03;;;;;;;11.82;10.77;;;;;;;25.08;65.32;101141.75;4895574;29;20462;-77
2022/06/03 00:14:49;;;;;;;12.43;11.32;;;;;;;25.08;64.78;101130.94;4905818;28;20060;-77
2022/06/03 00:17:51;;;;;;;12.52;11.40;;;;;;;25.09;64.89;101134.50;4912666;29;20060;-77
2022/06/03 00:20:24;;;;;;;15.35;11.95;;;;;;;25.09;65.04;101150.78;4933133;28;20067;-77
2022/06/03 00:23:01;;;;;;;12.88;11.57;;;;;;;25.09;64.95;101159.75;4994625;28;20409;-77
2022/06/03 00:25:34;;;;;;;12.73;11.50;;;;;;;25.09;65.22;101161.59;5010594;28;20069;-77
2022/06/03 00:28:11;;;;;;;13.57;12.38;;;;;;;25.08;64.81;101168.00;5012057;28;20041;-77
2022/06/03 00:30:57;;;;;;;13.00;11.77;;;;;;;25.09;65.15;101175.16;5011275;28;20054;-77
2022/06/03 00:33:41;;;;;;;13.68;12.38;;;;;;;25.08;64.92;101176.97;5012593;28;20054;-77
2022/06/03 00:36:36;;;;;;;12.80;11.70;;;;;;;25.08;65.04;101174.28;5010030;28;20045;-78
2022/06/03 00:39:06;;;;;;;14.98;12.55;;;;;;;25.08;65.05;101171.56;5012070;28;20049;-77
2022/06/03 00:41:49;;;;;;;13.35;12.05;;;;;;;25.08;64.94;101170.72;5012044;28;20050;-77
2022/06/03 00:44:39;;;;;;;12.88;11.68;;;;;;;25.09;64.89;101164.31;5012388;28;20049;-77
2022/06/03 00:48:01;;;;;;;12.65;11.60;;;;;;;25.09;65.02;101145.34;5011225;28;20046;-77
2022/06/03 00:50:46;;;;;;;13.85;12.55;;;;;;;25.09;65.03;101153.47;5073024;28;20084;-77
2022/06/03 00:53:27;;;;;;;12.05;10.95;;;;;;;25.08;65.08;101157.16;5052920;28;20067;-77
2022/06/03 00:56:36;;;;;;;13.70;12.30;;;;;;;25.08;64.70;101158.00;5052341;28;20056;-78
2022/06/03 00:59:31;;;;;;;12.77;11.55;;;;;;;25.10;64.84;101169.56;5012725;28;20057;-78
2022/06/03 01:02:19;;;;;;;13.32;11.93;;;;;;;25.08;64.71;101168.84;5013057;28;20065;-77
2022/06/03 01:05:09;;;;;;;13.10;11.93;;;;;;;25.09;64.58;101173.28;5012615;28;20073;-77
2022/06/03 01:07:55;;;;;;;13.85;12.48;;;;;;;25.09;64.47;101170.56;5013615;28;20417;-76
2022/06/03 01:10:34;;;;;;;14.02;12.63;;;;;;;25.08;64.44;101166.16;5014053;28;20085;-77
2022/06/03 01:13:12;;;;;;;13.88;12.52;;;;;;;25.09;64.61;101175.16;5013029;28;20053;-78
2022/06/03 01:16:05;;;;;;;13.45;12.10;;;;;;;25.09;64.62;101167.03;5010516;28;20050;-78
2022/06/03 01:18:43;;;;;;;13.98;12.45;;;;;;;25.09;64.65;101173.28;5012452;28;20157;-78
2022/06/03 01:21:29;;;;;;;14.13;12.85;;;;;;;25.09;64.54;101167.03;4996138;28;20397;-78
2022/06/03 01:24:15;;;;;;;14.15;12.85;;;;;;;25.08;64.54;101166.16;5003192;28;20605;-79
2022/06/03 01:27:00;;;;;;;13.77;12.48;;;;;;;25.09;64.52;101175.16;4970694;28;20051;-78
2022/06/03 01:29:30;;;;;;;13.07;11.98;;;;;;;25.10;64.65;101176.84;4969917;28;20489;-78
2022/06/03 01:32:18;;;;;;;15.15;13.38;;;;;;;25.09;64.55;101178.69;4955459;28;20449;-78
2022/06/03 01:35:23;;;;;;;14.13;12.77;;;;;;;25.10;64.56;101184.97;4979592;28;20058;-79
2022/06/03 01:37:56;;;;;;;12.75;11.55;;;;;;;25.09;64.41;101188.69;5011385;28;20042;-79
2022/06/03 01:40:39;;;;;;;14.02;12.63;;;;;;;25.09;64.56;101178.69;4993410;28;20054;-79
2022/06/03 01:43:33;;;;;;;14.35;12.95;;;;;;;25.10;64.47;101185.81;5009157;28;20451;-79
2022/06/03 01:46:23;;;;;;;14.30;12.63;;;;;;;25.09;64.33;101181.41;5011941;28;20046;-79
2022/06/03 01:49:30;;;;;;;13.23;11.82;;;;;;;25.09;64.33;101180.56;5011875;28;20053;-79
2022/06/03 01:52:10;;;;;;;12.88;11.45;;;;;;;25.09;64.56;101184.13;5000764;28;20058;-80
2022/06/03 01:55:31;;;;;;;12.75;11.48;;;;;;;25.08;64.48;101187.81;5011262;28;20053;-79
2022/06/03 01:58:16;;;;;;;13.82;12.73;;;;;;;25.09;64.42;101194.97;5015705;28;20061;-79
2022/06/03 02:01:08;;;;;;;13.10;11.75;;;;;;;25.09;64.22;101197.66;5032271;28;20054;-79
2022/06/03 02:04:14;;;;;;;15.32;12.48;;;;;;;25.10;63.98;101209.34;5031295;28;20053;-79
2022/06/03 02:07:18;;;;;;;13.23;11.93;;;;;;;25.09;64.00;101200.38;5003822;28;20074;-79
2022/06/03 02:09:54;;;;;;;13.32;11.80;;;;;;;25.09;63.90;101194.97;5031279;28;20057;-78
2022/06/03 02:12:36;;;;;;;15.63;12.38;;;;;;;25.09;64.05;101188.69;5014846;28;20460;-79
2022/06/03 02:15:41;;;;;;;13.83;12.53;;;;;;;25.09;64.06;101183.28;5031481;28;20184;-79
2022/06/03 02:18:43;;;;;;;15.48;12.25;;;;;;;25.09;63.92;101194.97;5010520;28;20532;-79
2022/06/03 02:21:20;;;;;;;14.38;12.90;;;;;;;25.09;63.85;101208.50;5031245;28;20049;-78
2022/06/03 02:24:24;;;;;;;14.65;13.35;;;;;;;25.08;63.98;101220.31;5031029;28;20052;-78
2022/06/03 02:27:22;;;;;;;14.68;13.23;;;;;;;25.08;63.94;101217.63;5030876;28;20148;-78
2022/06/03 02:30:25;;;;;;;15.18;13.68;;;;;;;25.09;64.03;101221.19;5014917;28;20148;-78
2022/06/03 02:33:14;;;;;;;15.57;13.38;;;;;;;25.09;63.69;101229.34;5008946;28;20064;-79
2022/06/03 02:35:52;;;;;;;15.82;14.30;;;;;;;25.08;63.88;101205.94;5010827;28;20056;-78
2022/06/03 02:38:40;;;;;;;16.15;14.10;;;;;;;25.08;63.97;101220.31;5010599;28;20401;-78
2022/06/03 02:41:17;;;;;;;15.23;13.63;;;;;;;25.07;63.81;101218.59;5010980;28;20068;-79
2022/06/03 02:44:15;;;;;;;14.70;13.27;;;;;;;25.07;63.63;101218.59;5011059;28;20361;-78
2022/06/03 02:47:15;;;;;;;15.13;13.55;;;;;;;25.08;63.81;101224.91;5010768;28;20073;-79
2022/06/03 02:50:04;;;;;;;15.13;13.73;;;;;;;25.07;63.61;101226.72;5010836;28;20057;-80
2022/06/03 02:53:09;;;;;;;14.10;12.70;;;;;;;25.09;63.90;101245.59;5010212;28;20770;-80
2022/06/03 02:56:17;;;;;;;13.88;12.48;;;;;;;25.07;63.72;101245.69;5008826;28;20405;-79
2022/06/03 02:59:30;;;;;;;14.05;12.75;;;;;;;25.08;63.82;101230.31;5010554;28;20061;-79
2022/06/03 03:02:09;;;;;;;13.83;12.43;;;;;;;25.07;63.61;101234.84;5071365;28;20052;-80
2022/06/03 03:05:01;;;;;;;13.82;12.35;;;;;;;25.07;64.18;101226.72;5070989;28;20289;-79
2022/06/03 03:07:43;;;;;;;13.73;12.52;;;;;;;25.08;63.90;101217.63;5070909;28;20123;-79
2022/06/03 03:10:41;;;;;;;14.50;13.03;;;;;;;25.08;63.80;101220.31;5070953;28;20492;-79
2022/06/03 03:13:32;;;;;;;16.20;14.15;;;;;;;25.08;63.60;101225.75;5054116;28;20127;-79
2022/06/03 03:16:38;;;;;;;15.70;14.18;;;;;;;25.08;63.66;101231.16;5070452;28;20151;-79
2022/06/03 03:19:37;;;;;;;15.40;13.90;;;;;;;25.07;63.59;101240.28;4986473;28;20057;-79
2022/06/03 03:22:33;;;;;;;14.63;13.25;;;;;;;25.07;63.67;101242.97;4933112;29;20070;-79
2022/06/03 03:25:11;;;;;;;16.40;14.80;;;;;;;25.07;63.68;101240.28;4933088;29;20488;-78
2022/06/03 03:28:12;;;;;;;15.52;13.93;;;;;;;25.07;63.52;101251.09;4933734;29;20133;-79
2022/06/03 03:30:48;;;;;;;14.77;13.27;;;;;;;25.07;63.86;101261.94;4933430;28;20071;-79
2022/06/03 03:33:36;;;;;;;15.43;13.65;;;;;;;25.06;63.76;101249.41;4933439;29;20071;-81
2022/06/03 03:36:22;;;;;;;16.25;13.85;;;;;;;25.07;63.51;101253.81;4900556;29;20068;-80
2022/06/03 03:39:10;;;;;;;15.60;13.57;;;;;;;25.06;63.68;101252.13;4874492;28;20090;-80
2022/06/03 03:41:43;;;;;;;16.13;14.50;;;;;;;25.06;63.70;101246.72;4877123;29;20057;-79
2022/06/03 03:44:35;;;;;;;15.77;14.20;;;;;;;25.06;63.66;101246.72;4876601;29;20073;-79
2022/06/03 03:47:08;;;;;;;14.95;13.35;;;;;;;25.06;63.64;101249.41;4877189;29;20065;-79
2022/06/03 03:50:12;;;;;;;15.50;14.02;;;;;;;25.07;63.60;101242.97;4877992;29;20061;-82
2022/06/03 03:52:45;;;;;;;16.10;14.32;;;;;;;25.06;63.52;101254.84;4891499;29;20159;-79
2022/06/03 03:56:03;;;;;;;15.52;13.98;;;;;;;25.05;63.55;101261.28;4933041;29;20407;-79
2022/06/03 03:58:40;;;;;;;14.70;13.40;;;;;;;25.06;63.63;101262.97;4942739;28;20070;-79
2022/06/03 04:01:40;;;;;;;14.95;13.52;;;;;;;25.06;63.47;101262.97;5008538;28;20057;-79
2022/06/03 04:04:27;;;;;;;16.05;14.60;;;;;;;25.06;63.56;101257.53;5076960;28;20050;-78
2022/06/03 04:07:16;;;;;;;15.80;14.20;;;;;;;25.06;63.44;101259.41;4993199;28;20046;-78
2022/06/03 04:10:04;;;;;;;15.70;14.23;;;;;;;25.05;63.34;101268.56;5007988;28;20053;-78
2022/06/03 04:12:38;;;;;;;14.50;13.20;;;;;;;25.05;63.65;101271.25;5008318;28;20057;-78
2022/06/03 04:15:33;;;;;;;14.75;13.25;;;;;;;25.05;63.56;101280.25;4993212;28;20051;-79
2022/06/03 04:18:13;;;;;;;15.27;13.80;;;;;;;25.06;63.48;101294.63;4997957;28;20049;-79
2022/06/03 04:21:09;;;;;;;14.55;12.27;;;;;;;25.05;63.17;101269.41;4993161;28;20046;-79
2022/06/03 04:23:48;;;;;;;14.52;13.02;;;;;;;25.05;63.38;101274.81;4975561;28;20136;-79
2022/06/03 04:26:44;;;;;;;15.20;13.65;;;;;;;25.05;63.33;101277.53;4993141;28;20069;-79
2022/06/03 04:29:48;;;;;;;13.80;12.52;;;;;;;25.05;63.23;101282.09;4991199;28;20405;-80
2022/06/03 04:32:42;;;;;;;13.85;12.65;;;;;;;25.04;63.22;101286.66;4991648;28;20042;-79
2022/06/03 04:35:33;;;;;;;13.38;12.15;;;;;;;25.05;63.48;101284.81;5052762;28;20057;-79
2022/06/03 04:38:06;;;;;;;12.82;11.48;;;;;;;25.05;63.17;101287.53;5052995;28;20056;-79
2022/06/03 04:40:52;;;;;;;14.45;12.90;;;;;;;25.05;63.25;101284.81;5053014;28;20068;-78
2022/06/03 04:44:13;;;;;;;13.20;11.85;;;;;;;25.04;63.29;101297.50;5052723;28;20053;-78
2022/06/03 04:47:18;;;;;;;13.40;12.23;;;;;;;25.05;63.14;101295.66;5032738;28;20060;-78
2022/06/03 04:50:07;;;;;;;12.82;10.95;;;;;;;25.04;63.02;101302.94;5032863;28;20571;-78
2022/06/03 04:53:09;;;;;;;13.27;12.07;;;;;;;25.04;63.20;101300.22;4956693;28;20531;-78
2022/06/03 04:56:07;;;;;;;13.25;11.98;;;;;;;25.04;63.01;101289.38;4951882;29;20510;-78
2022/06/03 04:58:40;;;;;;;16.27;12.75;;;;;;;25.04;63.01;101289.38;4951926;29;20477;-78
2022/06/03 05:01:25;;;;;;;15.30;13.27;;;;;;;25.04;63.15;101283.97;4935168;28;20505;-78
2022/06/03 05:04:30;;;;;;;13.23;12.00;;;;;;;25.04;63.06;101286.66;4951579;29;20051;-78
2022/06/03 05:07:22;;;;;;;14.30;12.95;;;;;;;25.03;63.19;101287.66;4951731;29;20059;-78
2022/06/03 05:10:26;;;;;;;13.90;12.55;;;;;;;25.05;63.14;101282.09;4951748;29;20067;-78
2022/06/03 05:13:15;;;;;;;13.80;12.43;;;;;;;25.03;63.44;101276.81;4951228;29;20491;-78
2022/06/03 05:16:01;;;;;;;14.85;13.43;;;;;;;25.04;63.29;101275.00;4951457;29;20487;-77
2022/06/03 05:19:07;;;;;;;15.77;13.45;;;;;;;25.03;63.42;101268.69;4948871;28;20047;-79
2022/06/03 05:22:14;;;;;;;13.93;12.63;;;;;;;25.03;63.39;101271.41;4923752;28;20419;-79
2022/06/03 05:24:53;;;;;;;14.45;13.18;;;;;;;25.04;63.54;101265.00;4932022;28;20060;-79
2022/06/03 05:27:38;;;;;;;15.32;13.90;;;;;;;25.03;63.62;101267.84;4931827;28;20052;-79
2022/06/03 05:30:18;;;;;;;16.05;14.23;;;;;;;25.03;63.50;101271.41;4932068;29;20059;-79
2022/06/03 05:33:26;;;;;;;15.45;14.07;;;;;;;25.04;63.64;101278.53;4948000;29;20062;-78
2022/06/03 05:35:56;;;;;;;15.13;13.75;;;;;;;25.03;63.76;101276.81;4932128;29;20056;-78
2022/06/03 05:39:04;;;;;;;17.20;14.52;;;;;;;25.03;63.71;101274.09;4947680;29;20047;-78
2022/06/03 05:44:47;;;;;;;15.35;13.80;;;;;;;25.04;63.73;101275.84;4932016;29;20490;-78
2022/06/03 05:47:24;;;;;;;16.58;14.95;;;;;;;25.05;63.73;101284.81;4915386;29;20051;-79
2022/06/03 05:50:28;;;;;;;16.30;14.80;;;;;;;25.04;63.55;101285.81;4931967;29;20075;-79
2022/06/03 05:53:19;;;;;;;17.50;15.90;;;;;;;25.03;63.44;101293.06;4931591;29;20055;-79
2022/06/03 05:56:12;;;;;;;16.92;14.45;;;;;;;25.05;63.53;101296.50;4931926;29;20074;-79
2022/06/03 05:58:55;;;;;;;13.73;12.52;;;;;;;25.05;63.48;101298.34;4977339;28;20062;-79
2022/06/03 06:01:41;;;;;;;16.43;14.57;;;;;;;25.05;63.61;101301.06;4991893;28;20493;-79
2022/06/03 06:04:31;;;;;;;15.10;13.70;;;;;;;25.05;63.62;101298.34;4991373;28;20050;-78
2022/06/03 06:07:20;;;;;;;14.65;12.98;;;;;;;25.06;63.61;101310.88;4991251;28;20061;-78
2022/06/03 06:09:57;;;;;;;15.32;13.95;;;;;;;25.05;63.73;101312.75;4990455;28;20512;-78
2022/06/03 06:12:45;;;;;;;14.98;13.52;;;;;;;25.06;63.53;101311.72;4991274;28;20406;-79
2022/06/03 06:15:50;;;;;;;14.82;13.30;;;;;;;25.06;63.38;101319.84;5005687;28;20061;-79
2022/06/03 06:18:42;;;;;;;15.05;13.55;;;;;;;25.07;63.29;101323.41;4991226;28;20042;-80
2022/06/03 06:21:21;;;;;;;13.02;11.82;;;;;;;25.07;63.39;101318.00;5003968;28;20143;-78
2022/06/03 06:24:07;;;;;;;14.32;12.85;;;;;;;25.07;63.40;101324.25;5011124;28;20057;-80
2022/06/03 06:27:33;;;;;;;14.15;12.82;;;;;;;25.07;63.41;101324.25;5011139;28;20046;-79
2022/06/03 06:30:18;;;;;;;13.60;12.32;;;;;;;25.08;63.23;101325.13;5009576;28;20073;-79
2022/06/03 06:33:10;;;;;;;13.43;11.82;;;;;;;25.07;63.32;101318.00;5010676;28;20046;-79
2022/06/03 06:36:08;;;;;;;14.02;12.73;;;;;;;25.08;63.50;101322.44;5010748;28;20057;-79
2022/06/03 06:38:38;;;;;;;13.65;12.35;;;;;;;25.07;63.31;101316.13;5010616;28;20046;-79
2022/06/03 06:41:32;;;;;;;13.02;11.82;;;;;;;25.08;63.35;101307.03;5010510;28;20072;-79
2022/06/03 06:44:52;;;;;;;14.73;13.43;;;;;;;25.08;63.57;101307.03;5008998;28;20065;-78
2022/06/03 06:47:30;;;;;;;15.25;13.95;;;;;;;25.09;63.85;101297.06;4995036;28;20053;-78
2022/06/03 06:50:01;;;;;;;14.27;12.13;;;;;;;25.08;63.65;101293.47;5010509;28;20056;-80
2022/06/03 06:52:52;;;;;;;15.88;14.48;;;;;;;25.08;64.23;101288.06;5010088;28;20057;-78
2022/06/03 06:55:35;;;;;;;18.73;16.77;;;;;;;25.08;64.83;101288.06;5008956;28;20053;-78
2022/06/03 06:58:19;;;;;;;17.50;15.68;;;;;;;25.08;63.94;101282.63;5009885;28;20489;-77
2022/06/03 07:00:49;;;;;;;22.00;19.75;;;;;;;25.07;64.55;101283.63;5010321;28;20046;-78
2022/06/03 07:03:47;;;;;;;26.30;22.30;;;;;;;25.07;64.76;101280.06;5010409;28;20058;-77
2022/06/03 07:06:32;;;;;;;25.30;22.55;;;;;;;25.04;64.95;101280.41;5009991;28;20092;-78
2022/06/03 07:09:37;;;;;;;23.63;21.08;;;;;;;24.99;65.35;101278.16;5008887;28;20046;-79
2022/06/03 07:12:14;;;;;;;23.08;19.98;;;;;;;24.99;65.67;101275.44;5010261;28;20053;-75
2022/06/03 07:15:05;;;;;;;23.75;21.45;;;;;;;24.98;65.70;101273.75;5011619;28;20049;-78
2022/06/03 07:21:01;;;;;;;21.60;18.42;;;;;;;24.98;65.43;101257.50;5010118;28;20057;-81
2022/06/03 07:23:52;;;;;;;23.10;20.20;;;;;;;24.97;65.83;101255.81;5012441;28;20053;-76
2022/06/03 07:26:43;;;;;;;21.60;19.60;;;;;;;24.98;65.77;101257.50;5013200;28;20372;-77
2022/06/03 07:29:13;;;;;;;28.90;22.67;;;;;;;24.98;66.35;101249.38;5013912;28;20046;-78
2022/06/03 07:31:43;;;;;;;24.40;21.85;;;;;;;24.99;66.49;101251.06;5057935;28;20043;-75
2022/06/03 07:34:25;;;;;;;24.38;20.50;;;;;;;25.01;66.68;101259.88;5117097;28;20039;-78
2022/06/03 07:37:11;;;;;;;23.48;21.02;;;;;;;25.03;66.72;101268.69;5115816;28;20055;-78
2022/06/03 07:39:49;;;;;;;26.05;23.38;;;;;;;25.04;66.96;101281.25;5117219;28;20051;-77
2022/06/03 07:42:23;;;;;;;27.13;23.48;;;;;;;25.01;66.68;101286.13;5113201;28;20059;-79
2022/06/03 07:45:01;;;;;;;27.27;24.40;;;;;;;25.01;67.36;101275.28;5117397;28;20044;-80
2022/06/03 07:47:29;;;;;;;31.25;25.35;;;;;;;25.00;67.18;101279.03;5118020;28;20047;-80
2022/06/03 07:50:00;;;;;;;28.45;23.33;;;;;;;25.01;67.08;101288.84;5116936;28;20409;-80
2022/06/03 07:52:32;;;;;;;29.13;26.02;;;;;;;24.98;67.56;101308.09;5116174;28;20066;-79
2022/06/03 07:55:08;;;;;;;32.17;27.38;;;;;;;24.87;67.80;101299.25;5116845;28;20036;-78
2022/06/03 07:57:35;;;;;;;33.30;25.73;;;;;;;24.89;68.14;101297.22;5116320;28;20514;-78
2022/06/03 08:00:13;;;;;;;30.20;23.70;;;;;;;24.90;67.43;101287.22;5116238;28;20044;-77
2022/06/03 08:02:41;;;;;;;28.33;22.98;;;;;;;24.93;67.22;101278.78;5114614;28;20050;-77
2022/06/03 08:05:11;;;;;;;26.75;23.85;;;;;;;24.95;68.26;101278.63;5116122;28;20506;-77
2022/06/03 08:13:51;;;;;;;27.08;23.88;;;;;;;25.04;67.77;101327.31;5111220;28;20051;-77
2022/06/03 08:16:35;;;;;;;29.98;24.73;;;;;;;25.07;67.19;101310.72;5113419;28;20048;-77
2022/06/03 08:19:17;;;;;;;28.83;22.80;;;;;;;25.07;65.83;101297.16;5012447;28;20057;-76
2022/06/03 08:21:52;;;;;;;23.40;21.00;;;;;;;25.10;66.00;101296.88;5011749;28;20038;-76
2022/06/03 08:24:34;;;;;;;24.00;20.30;;;;;;;25.12;66.08;101289.47;4994710;28;20046;-76
2022/06/03 08:27:06;;;;;;;21.20;18.73;;;;;;;25.13;65.89;101282.19;4991885;28;20050;-77
2022/06/03 08:29:43;;;;;;;22.70;20.33;;;;;;;25.12;65.82;101294.03;4993135;28;20051;-76
2022/06/03 08:32:18;;;;;;;23.65;19.33;;;;;;;25.13;65.35;101302.00;4990581;28;20066;-77
2022/06/03 08:34:50;;;;;;;19.35;17.25;;;;;;;25.14;65.66;101306.41;4992300;28;20057;-76
2022/06/03 08:37:25;;;;;;;29.52;19.55;;;;;;;25.15;65.33;101318.09;4992501;28;20050;-78
2022/06/03 08:39:56;;;;;;;23.80;20.45;;;;;;;25.15;65.58;101323.50;4991924;28;20363;-76
2022/06/03 08:42:31;;;;;;;22.55;18.63;;;;;;;25.17;65.55;101323.38;4992070;28;20071;-76
2022/06/03 08:45:17;;;;;;;23.73;16.90;;;;;;;25.15;65.55;101316.22;4992380;28;20051;-75
2022/06/03 08:47:55;;;;;;;19.38;16.52;;;;;;;25.16;65.44;101311.69;4997197;28;20042;-76
2022/06/03 08:50:40;;;;;;;25.85;20.27;;;;;;;25.17;65.75;101318.78;5011740;28;20046;-76
2022/06/03 08:53:26;;;;;;;21.77;18.88;;;;;;;25.17;65.56;101299.81;4990971;28;20046;-75
2022/06/03 08:56:03;;;;;;;21.70;17.88;;;;;;;25.18;65.69;101295.25;4991747;28;20054;-76
2022/06/03 08:58:46;;;;;;;18.98;16.98;;;;;;;25.17;65.56;101278.16;4992175;28;20047;-77
2022/06/03 09:01:34;;;;;;;18.75;16.65;;;;;;;25.18;65.40;101292.53;4991896;28;20038;-76
2022/06/03 09:04:20;;;;;;;19.00;16.88;;;;;;;25.17;65.61;101318.78;4992127;28;20046;-76
2022/06/03 09:07:05;;;;;;;20.10;15.80;;;;;;;25.19;65.93;101338.44;4991159;28;20401;-76
2022/06/03 09:09:42;;;;;;;23.90;19.27;;;;;;;25.19;66.50;101341.16;4992065;28;20042;-77
2022/06/03 09:12:28;;;;;;;21.20;17.52;;;;;;;25.21;66.13;101316.63;4990759;28;20046;-77
2022/06/03 09:15:11;;;;;;;21.05;18.42;;;;;;;25.21;66.35;101289.53;4993259;28;20405;-77
2022/06/03 09:18:01;;;;;;;21.77;17.58;;;;;;;25.21;65.92;101284.09;4991174;28;20050;-77
2022/06/03 09:20:55;;;;;;;23.20;17.67;;;;;;;25.21;65.81;101279.53;4991465;28;20038;-77
2022/06/03 09:23:25;;;;;;;19.08;15.93;;;;;;;25.21;66.22;101278.69;5006724;28;20440;-77
2022/06/03 09:25:57;;;;;;;23.05;17.20;;;;;;;25.21;66.25;101293.06;5012147;28;20046;-77
2022/06/03 09:28:29;;;;;;;19.20;16.45;;;;;;;25.21;66.20;101281.41;5009542;28;20058;-76
2022/06/03 09:31:00;;;;;;;18.55;15.82;;;;;;;25.24;66.32;101281.03;5011269;28;20049;-77
2022/06/03 09:33:30;;;;;;;19.45;17.40;;;;;;;25.23;66.58;101280.19;5011668;28;20396;-79
2022/06/03 09:36:00;;;;;;;21.23;16.42;;;;;;;25.23;66.53;101282.06;5010677;28;20042;-76
2022/06/03 09:38:43;;;;;;;20.05;16.85;;;;;;;25.25;66.64;101278.19;5010443;28;20072;-75
2022/06/03 09:41:12;;;;;;;20.30;16.42;;;;;;;25.25;66.15;101286.31;4995108;28;20042;-75
2022/06/03 09:43:45;;;;;;;21.95;16.55;;;;;;;25.28;66.52;101264.34;5010274;28;20400;-83
2022/06/03 09:46:15;;;;;;;18.13;16.17;;;;;;;25.28;66.28;101267.03;5011635;28;20046;-77
2022/06/03 09:48:43;;;;;;;20.60;18.33;;;;;;;25.30;66.55;101275.00;5010998;28;20385;-75
2022/06/03 09:51:19;;;;;;;19.67;16.88;;;;;;;25.31;66.18;101290.25;5011134;28;20044;-76
2022/06/03 09:53:47;;;;;;;19.67;17.30;;;;;;;25.31;66.03;101292.97;5010728;28;20383;-77
2022/06/03 09:56:29;;;;;;;24.13;18.00;;;;;;;25.33;66.14;101294.50;5011059;28;20409;-79
2022/06/03 09:59:00;;;;;;;22.83;20.27;;;;;;;25.35;66.22;101297.03;5009568;28;20472;-77
2022/06/03 10:01:29;;;;;;;21.95;19.55;;;;;;;25.36;65.71;101296.91;5010605;28;20504;-77
2022/06/03 10:04:00;;;;;;;19.33;17.23;;;;;;;25.36;65.47;101296.03;5011400;28;20050;-77
2022/06/03 10:06:43;;;;;;;25.35;19.75;;;;;;;25.36;66.00;101291.47;5010539;28;20065;-74
2022/06/03 10:17:36;;;;;;;21.08;18.15;;;;;;;25.36;65.51;101285.19;5057824;28;20050;-74
2022/06/03 10:20:08;;;;;;;18.23;16.17;;;;;;;25.37;65.37;101295.03;5113581;28;20036;-76
2022/06/03 10:22:36;;;;;;;20.55;18.27;;;;;;;25.36;65.01;101291.47;5113717;28;20048;-75
2022/06/03 10:25:04;;;;;;;20.00;17.95;;;;;;;25.37;64.92;101284.19;5019662;28;20057;-75
2022/06/03 10:27:32;;;;;;;19.35;17.30;;;;;;;25.36;65.10;101282.47;5010625;28;20053;-76
2022/06/03 10:30:00;;;;;;;18.85;16.95;;;;;;;25.37;65.12;101281.50;5010637;28;20046;-75
2022/06/03 10:32:27;;;;;;;17.63;15.90;;;;;;;25.37;65.41;101286.91;5010218;28;20046;-75
2022/06/03 10:35:04;;;;;;;19.77;16.58;;;;;;;25.38;65.31;101278.59;5010351;28;20046;-77
2022/06/03 10:37:34;;;;;;;16.70;14.82;;;;;;;25.37;64.97;101284.19;5009728;28;20050;-76
2022/06/03 10:40:01;;;;;;;19.55;15.50;;;;;;;25.37;65.07;101290.47;5004744;28;20382;-77
2022/06/03 10:42:29;;;;;;;20.08;16.02;;;;;;;25.37;65.31;101287.75;4990538;28;20058;-77
2022/06/03 10:44:58;;;;;;;16.48;14.85;;;;;;;25.36;65.03;101302.31;4990598;28;20050;-77
2022/06/03 10:47:35;;;;;;;16.75;14.93;;;;;;;25.37;65.21;101298.59;4991742;28;20046;-75
2022/06/03 10:50:09;;;;;;;17.77;15.10;;;;;;;25.38;65.00;101302.16;4994002;28;20045;-74
2022/06/03 11:01:25;;;;;;;15.93;14.30;;;;;;;25.38;65.06;101311.13;4993797;28;20050;-76
2022/06/03 11:03:53;;;;;;;16.65;14.60;;;;;;;25.37;65.12;101303.16;4994247;28;20051;-76
2022/06/03 11:06:26;;;;;;;16.35;14.80;;;;;;;25.38;65.46;101313.84;4993948;28;20043;-74
2022/06/03 11:08:58;;;;;;;18.90;17.10;;;;;;;25.38;65.23;101303.00;4993740;28;20053;-80
2022/06/03 11:11:31;;;;;;;17.17;14.95;;;;;;;25.39;65.14;101295.72;4993964;28;20051;-81
2022/06/03 11:14:21;;;;;;;15.82;14.13;;;;;;;25.39;65.00;101277.59;4992900;28;20046;-78
2022/06/03 11:16:56;;;;;;;15.73;14.05;;;;;;;25.39;65.13;101274.88;4993899;28;20409;-77
2022/06/03 11:19:24;;;;;;;15.82;14.23;;;;;;;25.39;65.33;101276.75;4994020;28;20046;-82
2022/06/03 11:22:38;;;;;;;16.92;14.70;;;;;;;25.39;65.45;101260.47;4992753;28;20047;-82
2022/06/03 11:25:26;;;;;;;16.50;13.55;;;;;;;25.40;65.63;101267.59;5020996;28;20061;-77
2022/06/03 11:28:04;;;;;;;14.43;12.85;;;;;;;25.39;65.59;101277.59;4995913;28;20050;-74
2022/06/03 11:30:48;;;;;;;16.23;13.68;;;;;;;25.39;65.79;101279.44;4993702;28;20050;-78
2022/06/03 11:33:19;;;;;;;15.77;14.18;;;;;;;25.40;66.19;101276.59;4993307;28;20108;-77
2022/06/03 11:36:02;;;;;;;15.82;14.25;;;;;;;25.40;66.36;101276.59;4993712;28;20054;-77
2022/06/03 11:38:51;;;;;;;20.35;16.58;;;;;;;25.41;66.80;101282.88;4991832;28;20062;-77
2022/06/03 11:41:34;;;;;;;17.42;15.10;;;;;;;25.41;66.69;101296.41;5008912;28;20045;-77
2022/06/03 11:44:30;;;;;;;15.40;13.30;;;;;;;25.40;66.45;101295.56;5088766;28;20502;-76
2022/06/03 11:47:03;;;;;;;17.00;13.85;;;;;;;25.41;66.21;101282.88;5116360;28;20043;-76
2022/06/03 11:49:31;;;;;;;15.35;13.82;;;;;;;25.41;66.55;101280.16;5116076;28;20047;-76
2022/06/03 11:52:03;;;;;;;15.00;13.35;;;;;;;25.40;66.54;101286.56;5114381;28;20046;-76
2022/06/03 11:54:31;;;;;;;16.15;13.82;;;;;;;25.42;66.71;101299.97;5116100;28;20505;-76
2022/06/03 11:57:02;;;;;;;15.30;13.70;;;;;;;25.40;66.62;101306.41;5114349;28;20048;-76
2022/06/03 11:59:50;;;;;;;14.10;12.68;;;;;;;25.39;66.94;101285.72;5115498;28;20054;-75
2022/06/03 12:02:32;;;;;;;21.40;14.65;;;;;;;25.39;66.82;101274.88;5115708;28;20105;-74
2022/06/03 12:05:24;;;;;;;15.60;13.47;;;;;;;25.38;67.39;101258.78;5115721;28;20050;-76
2022/06/03 12:07:55;;;;;;;15.93;13.73;;;;;;;25.38;68.25;101256.91;5115575;28;20054;-76
2022/06/03 12:10:22;;;;;;;15.23;13.63;;;;;;;25.39;67.11;101265.91;5115124;28;20043;-75
2022/06/03 12:13:28;;;;;;;14.57;13.07;;;;;;;25.38;67.44;101267.75;5115985;28;20401;-75
2022/06/03 12:15:59;;;;;;;15.43;12.98;;;;;;;25.39;67.85;101268.59;5115891;28;20046;-76
2022/06/03 12:18:32;;;;;;;15.15;13.55;;;;;;;25.40;68.00;101259.47;5071753;28;20137;-75
2022/06/03 12:21:03;;;;;;;15.15;13.45;;;;;;;25.39;67.85;101272.16;5011973;28;20046;-75
2022/06/03 12:23:37;;;;;;;15.80;12.95;;;;;;;25.40;67.45;101290.16;5011824;28;20050;-76
2022/06/03 12:26:31;;;;;;;14.70;13.13;;;;;;;25.41;67.97;101307.25;5010905;28;20049;-76
2022/06/03 12:29:22;;;;;;;16.70;14.57;;;;;;;25.41;68.64;101307.25;5011667;28;20053;-76
2022/06/03 12:31:49;;;;;;;16.00;14.38;;;;;;;25.40;68.70;101298.28;5011863;28;20116;-81
2022/06/03 12:34:26;;;;;;;17.80;13.75;;;;;;;25.42;68.49;101289.13;5011269;28;20046;-75
2022/06/03 12:37:21;;;;;;;18.08;14.95;;;;;;;25.43;69.53;101280.81;5001036;28;20045;-76
2022/06/03 12:40:20;;;;;;;14.90;13.23;;;;;;;25.42;68.79;101284.56;5011395;28;20042;-76
2022/06/03 12:42:47;;;;;;;15.77;14.10;;;;;;;25.43;68.82;101288.13;5010652;28;20054;-76
2022/06/03 12:45:25;;;;;;;16.92;15.13;;;;;;;25.43;68.94;101286.25;5011698;28;20479;-77
2022/06/03 12:47:55;;;;;;;16.05;13.88;;;;;;;25.42;68.82;101276.44;5009881;28;20547;-77
2022/06/03 12:50:32;;;;;;;15.73;14.10;;;;;;;25.42;68.68;101273.72;5011934;28;20054;-76
2022/06/03 12:53:20;;;;;;;18.88;13.15;;;;;;;25.42;68.83;101278.28;5011472;28;20046;-75
2022/06/03 12:55:54;;;;;;;17.42;14.52;;;;;;;25.43;68.99;101272.69;5066091;28;20054;-78